^^
Meteo Knjazevac Station Historical Data
Daily Summary for February 20, 2021 Units:  English    Metric   Both
Daily Weekly Monthly Yearly Custom
  High: Low: Average:
Temperature: 41 °F 34.9 °F 37.9 °F
Dew Point: 37.2 °F 28.9 °F 33.4 °F
Humidity: 91% 72% 84%
Wind Speed: 15mph 0mph 6.1mph
Wind Gust: 22mph - -
Wind- - WSW
Pressure: 30.16 in 29.97 in -
Precipitation: 0.00 in    
Historical Graphs
 
 
Tabular Data for February 20, 2021
Time Temperature Dew Point Pressure Wind Wind Speed Wind Gust Humidity Rainfall Rate (Hourly) solar Conditions
00:00 38.3 °F 35.1 °F 29.98 in WSW 9 mph 14 mph 88% 0.00 in 0 W/m2
00:10 38.4 °F 35.2 °F 29.98 in SW 8 mph 14 mph 88% 0.00 in 0 W/m2
00:20 38.3 °F 35.1 °F 29.98 in SW 9 mph 13 mph 88% 0.00 in 0 W/m2
00:30 38.3 °F 35.1 °F 29.98 in WSW 6 mph 12 mph 88% 0.00 in 0 W/m2
00:40 38.1 °F 34.9 °F 29.98 in WSW 6 mph 13 mph 88% 0.00 in 0 W/m2
00:50 38.2 °F 34.9 °F 29.98 in SW 7 mph 10 mph 88% 0.00 in 0 W/m2
01:00 38.3 °F 35.1 °F 29.97 in SW 8 mph 13 mph 88% 0.00 in 0 W/m2
01:10 38.3 °F 35.1 °F 29.98 in WSW 9 mph 15 mph 88% 0.00 in 0 W/m2
01:20 38.5 °F 35.2 °F 29.98 in WSW 8 mph 14 mph 88% 0.00 in 0 W/m2
01:30 38.7 °F 35.4 °F 29.98 in WSW 7 mph 15 mph 88% 0.00 in 0 W/m2
01:40 38.5 °F 35.2 °F 29.98 in WSW 6 mph 9 mph 88% 0.00 in 0 W/m2
01:50 38.5 °F 35.2 °F 29.99 in WSW 6 mph 10 mph 88% 0.00 in 0 W/m2
02:00 38.3 °F 35.1 °F 29.99 in WSW 6 mph 10 mph 88% 0.00 in 0 W/m2
02:10 38.3 °F 35.1 °F 29.99 in WSW 7 mph 9 mph 88% 0.00 in 0 W/m2
02:20 38.3 °F 35.1 °F 29.99 in WSW 5 mph 9 mph 88% 0.00 in 0 W/m2
02:30 38.3 °F 35.1 °F 29.99 in WSW 7 mph 11 mph 88% 0.00 in 0 W/m2
02:40 38.3 °F 35.1 °F 29.99 in WSW 7 mph 10 mph 88% 0.00 in 0 W/m2
02:50 38.1 °F 35.2 °F 29.98 in WSW 5 mph 10 mph 89% 0.00 in 0 W/m2
03:00 38.1 °F 35.2 °F 29.98 in SW 6 mph 9 mph 89% 0.00 in 0 W/m2
03:10 38.1 °F 35.4 °F 29.98 in WSW 6 mph 9 mph 90% 0.00 in 0 W/m2
03:20 38.3 °F 35.6 °F 29.98 in WSW 6 mph 12 mph 90% 0.00 in 0 W/m2
03:30 38.5 °F 35.5 °F 29.97 in WSW 6 mph 10 mph 89% 0.00 in 0 W/m2
03:40 38.7 °F 35.7 °F 29.97 in WSW 7 mph 13 mph 89% 0.00 in 0 W/m2
03:50 38.5 °F 35.5 °F 29.97 in SW 8 mph 14 mph 89% 0.00 in 0 W/m2
04:00 38.8 °F 35.9 °F 29.98 in WSW 10 mph 17 mph 89% 0.00 in 0 W/m2
04:10 38.8 °F 36.2 °F 29.98 in WSW 7 mph 18 mph 90% 0.00 in 0 W/m2
04:20 38.8 °F 36.2 °F 29.98 in WSW 7 mph 12 mph 90% 0.00 in 0 W/m2
04:30 38.7 °F 36 °F 29.98 in WSW 6 mph 12 mph 90% 0.00 in 0 W/m2
04:40 38.7 °F 36 °F 29.98 in WSW 7 mph 12 mph 90% 0.00 in 0 W/m2
04:50 38.8 °F 36.2 °F 29.98 in WSW 6 mph 13 mph 90% 0.00 in 0 W/m2
05:00 38.7 °F 36 °F 29.98 in WSW 6 mph 12 mph 90% 0.00 in 0 W/m2
05:10 38.7 °F 36 °F 29.98 in WSW 7 mph 10 mph 90% 0.00 in 0 W/m2
05:20 38.6 °F 36 °F 29.99 in WSW 7 mph 12 mph 90% 0.00 in 0 W/m2
05:30 38.5 °F 35.8 °F 29.99 in WSW 6 mph 12 mph 90% 0.00 in 0 W/m2
05:40 38.5 °F 35.8 °F 29.99 in WSW 7 mph 13 mph 90% 0.00 in 0 W/m2
05:50 38.6 °F 36 °F 29.99 in West 8 mph 12 mph 90% 0.00 in 0 W/m2
06:00 38.5 °F 36.1 °F 29.99 in WSW 3 mph 9 mph 91% 0.00 in 0 W/m2
06:10 38.5 °F 36.1 °F 30.00 in WSW 5 mph 8 mph 91% 0.00 in 0 W/m2
06:20 38.3 °F 35.9 °F 30.00 in West 6 mph 12 mph 91% 0.00 in 0 W/m2
06:30 38.3 °F 35.9 °F 30.00 in West 5 mph 10 mph 91% 0.00 in 0 W/m2
06:40 38.3 °F 35.9 °F 30.00 in West 7 mph 12 mph 91% 0.00 in 0 W/m2
06:50 38.3 °F 35.9 °F 30.00 in West 9 mph 14 mph 91% 0.00 in 0 W/m2
07:00 38.3 °F 35.6 °F 30.00 in WSW 10 mph 16 mph 90% 0.00 in 3 W/m2
07:10 38.5 °F 35.8 °F 30.00 in WSW 9 mph 17 mph 90% 0.00 in 7 W/m2
07:20 38.3 °F 35.6 °F 30.01 in West 7 mph 14 mph 90% 0.00 in 10 W/m2
07:30 38.5 °F 35.5 °F 30.01 in West 10 mph 15 mph 89% 0.00 in 19 W/m2
07:40 38.3 °F 35.4 °F 30.02 in West 8 mph 13 mph 89% 0.00 in 25 W/m2
07:50 38.3 °F 35.3 °F 30.01 in West 8 mph 15 mph 89% 0.00 in 31 W/m2
08:00 38.1 °F 35.2 °F 30.01 in West 9 mph 16 mph 89% 0.00 in 35 W/m2
08:10 37.9 °F 35.3 °F 30.01 in West 8 mph 14 mph 90% 0.00 in 40 W/m2
08:20 37.9 °F 35.3 °F 30.01 in West 8 mph 14 mph 90% 0.00 in 50 W/m2
08:30 38.3 °F 35.6 °F 30.02 in West 12 mph 22 mph 90% 0.00 in 50 W/m2
08:40 38.5 °F 35.8 °F 30.01 in West 15 mph 22 mph 90% 0.00 in 82 W/m2
08:50 38.8 °F 35.9 °F 30.02 in West 10 mph 22 mph 89% 0.00 in 90 W/m2
09:00 39.6 °F 36.3 °F 30.02 in West 10 mph 17 mph 88% 0.00 in 186 W/m2
09:10 40.5 °F 37.2 °F 30.02 in WSW 8 mph 18 mph 88% 0.00 in 203 W/m2
09:20 41 °F 36.8 °F 30.03 in West 9 mph 16 mph 85% 0.00 in 112 W/m2
09:30 40.5 °F 36.3 °F 30.03 in WNW 6 mph 11 mph 85% 0.00 in 83 W/m2
09:40 40.3 °F 36.4 °F 30.03 in WNW 5 mph 12 mph 86% 0.00 in 100 W/m2
09:50 40.3 °F 36.1 °F 30.03 in West 7 mph 14 mph 85% 0.00 in 99 W/m2
10:00 40.1 °F 36 °F 30.04 in WNW 7 mph 14 mph 85% 0.00 in 78 W/m2
10:10 40.1 °F 36 °F 30.04 in West 7 mph 15 mph 85% 0.00 in 71 W/m2
10:20 40.1 °F 36 °F 30.04 in West 5 mph 12 mph 85% 0.00 in 95 W/m2
10:30 40.1 °F 36 °F 30.04 in WSW 5 mph 11 mph 85% 0.00 in 118 W/m2
10:40 40.1 °F 36.2 °F 30.03 in West 5 mph 15 mph 86% 0.00 in 126 W/m2
10:50 40.1 °F 36 °F 30.04 in West 7 mph 14 mph 85% 0.00 in 112 W/m2
11:00 40.1 °F 36 °F 30.04 in West 9 mph 15 mph 85% 0.00 in 102 W/m2
11:10 39.9 °F 35.8 °F 30.04 in West 7 mph 17 mph 85% 0.00 in 131 W/m2
11:20 39.9 °F 36.1 °F 30.04 in WSW 6 mph 9 mph 86% 0.00 in 99 W/m2
11:30 40.1 °F 36 °F 30.04 in WSW 8 mph 16 mph 85% 0.00 in 257 W/m2
11:40 40.3 °F 36.1 °F 30.03 in WSW 7 mph 18 mph 85% 0.00 in 143 W/m2
11:50 40.5 °F 36.3 °F 30.03 in WSW 7 mph 14 mph 85% 0.00 in 211 W/m2
12:00 40.5 °F 36.3 °F 30.03 in WSW 7 mph 13 mph 85% 0.00 in 170 W/m2
12:10 40.5 °F 36.6 °F 30.04 in WSW 8 mph 14 mph 86% 0.00 in 196 W/m2
12:20 40.3 °F 35.8 °F 30.04 in WSW 9 mph 15 mph 84% 0.00 in 50 W/m2
12:30 39.9 °F 35.5 °F 30.04 in WSW 10 mph 16 mph 84% 0.00 in 39 W/m2
12:40 39.2 °F 35.4 °F 30.04 in West 9 mph 17 mph 86% 0.00 in 60 W/m2
12:50 38.8 °F 35.9 °F 30.04 in WSW 7 mph 11 mph 89% 0.00 in 73 W/m2
13:00 39 °F 36.3 °F 30.04 in WSW 5 mph 9 mph 90% 0.00 in 231 W/m2
13:10 39.7 °F 36.5 °F 30.05 in WSW 3 mph 8 mph 88% 0.00 in 115 W/m2
13:20 39.7 °F 34.4 °F 30.05 in West 7 mph 14 mph 81% 0.00 in 109 W/m2
13:30 39.7 °F 33.4 °F 30.06 in WNW 10 mph 16 mph 78% 0.00 in 96 W/m2
13:40 39.7 °F 33.4 °F 30.06 in WNW 5 mph 11 mph 78% 0.00 in 199 W/m2
13:50 40.6 °F 32.7 °F 30.06 in WNW 6 mph 12 mph 73% 0.00 in 190 W/m2
14:00 41 °F 32.7 °F 30.06 in West 8 mph 13 mph 72% 0.00 in 97 W/m2
14:10 40.8 °F 32.8 °F 30.06 in West 8 mph 14 mph 73% 0.00 in 70 W/m2
14:20 40.3 °F 32.6 °F 30.06 in West 9 mph 20 mph 74% 0.00 in 104 W/m2
14:30 39.9 °F 32.6 °F 30.06 in West 8 mph 17 mph 75% 0.00 in 36 W/m2
14:40 39.4 °F 32.1 °F 30.06 in West 8 mph 17 mph 75% 0.00 in 40 W/m2
14:50 39.2 °F 32.6 °F 30.07 in West 6 mph 10 mph 77% 0.00 in 27 W/m2
15:00 38.8 °F 32.6 °F 30.07 in West 8 mph 12 mph 78% 0.00 in 15 W/m2
15:10 38.8 °F 32.6 °F 30.08 in WNW 2 mph 12 mph 78% 0.00 in 17 W/m2
15:20 38.7 °F 32.4 °F 30.08 in WNW 2 mph 9 mph 78% 0.00 in 27 W/m2
15:30 38.5 °F 32.2 °F 30.08 in WSW 6 mph 8 mph 78% 0.00 in 13 W/m2
15:40 38.1 °F 32.2 °F 30.08 in WSW 3 mph 8 mph 79% 0.00 in 15 W/m2
15:50 37.7 °F 31.5 °F 30.08 in West 3 mph 10 mph 78% 0.00 in 8 W/m2
16:00 37.4 °F 31.2 °F 30.09 in West 3 mph 12 mph 78% 0.00 in 0 W/m2
16:10 37 °F 30.8 °F 30.09 in WSW 2 mph 10 mph 78% 0.00 in 0 W/m2
16:20 36.7 °F 30.5 °F 30.09 in SW 2 mph 6 mph 78% 0.00 in 0 W/m2
16:30 36.5 °F 30.6 °F 30.10 in WSW 1 mph 4 mph 79% 0.00 in 0 W/m2
16:40 36.1 °F 30.3 °F 30.10 in NW 2 mph 5 mph 79% 0.00 in 0 W/m2
16:50 35.8 °F 29.9 °F 30.10 in WSW 2 mph 5 mph 79% 0.00 in 0 W/m2
17:00 35.6 °F 29.7 °F 30.11 in Calm   7 mph 79% 0.00 in 0 W/m2
17:10 35.4 °F 29.5 °F 30.11 in West 1 mph 7 mph 79% 0.00 in 0 W/m2
17:20 35.1 °F 29.5 °F 30.12 in WSW 3 mph 8 mph 80% 0.00 in 0 W/m2
17:30 34.9 °F 29.3 °F 30.12 in West 2 mph 7 mph 80% 0.00 in 0 W/m2
17:40 34.9 °F 29.3 °F 30.11 in WSW 6 mph 8 mph 80% 0.00 in 0 W/m2
17:50 35.1 °F 29.5 °F 30.12 in WSW 5 mph 11 mph 80% 0.00 in 0 W/m2
18:00 35.1 °F 29.5 °F 30.12 in WSW 2 mph 7 mph 80% 0.00 in 0 W/m2
18:10 35.2 °F 29.7 °F 30.12 in SW 5 mph 8 mph 80% 0.00 in 0 W/m2
18:20 35.3 °F 29.7 °F 30.11 in SW 6 mph 7 mph 80% 0.00 in 0 W/m2
18:30 35.4 °F 29.9 °F 30.12 in WSW 3 mph 8 mph 80% 0.00 in 0 W/m2
18:40 35.6 °F 29.7 °F 30.12 in WSW 3 mph 7 mph 79% 0.00 in 0 W/m2
18:50 35.6 °F 29.7 °F 30.12 in SW 3 mph 7 mph 79% 0.00 in 0 W/m2
19:00 35.6 °F 29.7 °F 30.13 in SW 2 mph 8 mph 79% 0.00 in 0 W/m2
19:10 35.8 °F 29.9 °F 30.13 in WSW 7 mph 9 mph 79% 0.00 in 0 W/m2
19:20 36 °F 30.1 °F 30.13 in WSW 3 mph 7 mph 79% 0.00 in 0 W/m2
19:30 36 °F 30.1 °F 30.13 in SW 1 mph 6 mph 79% 0.00 in 0 W/m2
19:40 36 °F 30.1 °F 30.13 in SW 6 mph 7 mph 79% 0.00 in 0 W/m2
19:50 35.8 °F 29.9 °F 30.13 in WSW 6 mph 8 mph 79% 0.00 in 0 W/m2
20:00 35.8 °F 30.2 °F 30.13 in WSW 5 mph 8 mph 80% 0.00 in 0 W/m2
20:10 35.8 °F 30.2 °F 30.13 in WSW 3 mph 6 mph 80% 0.00 in 0 W/m2
20:20 35.8 °F 30.2 °F 30.14 in WSW 3 mph 8 mph 80% 0.00 in 0 W/m2
20:30 35.8 °F 30.2 °F 30.14 in WSW 6 mph 8 mph 80% 0.00 in 0 W/m2
20:40 35.8 °F 29.9 °F 30.14 in WSW 5 mph 9 mph 79% 0.00 in 0 W/m2
20:50 36 °F 30.1 °F 30.14 in WSW 2 mph 7 mph 79% 0.00 in 0 W/m2
21:00 36 °F 30.1 °F 30.14 in West 6 mph 10 mph 79% 0.00 in 0 W/m2
21:10 35.9 °F 30 °F 30.14 in West 3 mph 10 mph 79% 0.00 in 0 W/m2
21:20 35.8 °F 29.9 °F 30.14 in West 5 mph 9 mph 79% 0.00 in 0 W/m2
21:30 35.8 °F 29.9 °F 30.15 in WSW 5 mph 8 mph 79% 0.00 in 0 W/m2
21:40 35.6 °F 29.7 °F 30.15 in WSW 6 mph 8 mph 79% 0.00 in 0 W/m2
21:50 35.6 °F 29.7 °F 30.15 in WSW 3 mph 9 mph 79% 0.00 in 0 W/m2
22:00 35.6 °F 29.7 °F 30.14 in WSW 3 mph 8 mph 79% 0.00 in 0 W/m2
22:10 35.4 °F 29.6 °F 30.15 in West 3 mph 8 mph 79% 0.00 in 0 W/m2
22:20 35.2 °F 29.4 °F 30.15 in WSW 3 mph 5 mph 79% 0.00 in 0 W/m2
22:30 35.2 °F 29 °F 30.15 in WSW 6 mph 9 mph 78% 0.00 in 0 W/m2
22:40 35.1 °F 28.9 °F 30.15 in WSW 5 mph 11 mph 78% 0.00 in 0 W/m2
22:50 35.1 °F 29.2 °F 30.16 in West 7 mph 11 mph 79% 0.00 in 0 W/m2
23:00 35 °F 29.5 °F 30.16 in WSW 6 mph 11 mph 80% 0.00 in 0 W/m2
23:10 35.1 °F 29.5 °F 30.16 in WSW 7 mph 13 mph 80% 0.00 in 0 W/m2
23:20 35.1 °F 29.5 °F 30.16 in WSW 9 mph 13 mph 80% 0.00 in 0 W/m2
23:30 35.1 °F 29.5 °F 30.16 in West 6 mph 11 mph 80% 0.00 in 0 W/m2
23:40 35.2 °F 29.7 °F 30.16 in WSW 6 mph 13 mph 80% 0.00 in 0 W/m2
23:50 35.2 °F 29.6 °F 30.16 in WSW 6 mph 11 mph 80% 0.00 in 0 W/m2
Knjazevac, Serbia
Compliments of Weather Underground - 2 mb